Time;durP1;ratioP1;P1;durP2;ratioP2;P2;SDS_P1;SDS_P2;PMS_P1;PMS_P2;Temp;Humidity;BMP_temperature;BMP_pressure;BME280_temperature;BME280_humidity;BME280_pressure;Samples;Min_cycle;Max_cycle;Signal;HPM_P1;HPM_P2
2022/10/02 00:01:55;;;;;;;;;;;;;;;20.60;49.35;101078.50;5114526;28;19956;-39
2022/10/02 00:04:23;;;;;;;;;;;;;;;20.60;49.32;101086.81;5095543;28;19931;-39
2022/10/02 00:06:49;;;;;;;;;;;;;;;20.60;49.35;101086.81;5100569;28;19927;-39
2022/10/02 00:09:18;;;;;;;;;;;;;;;20.60;49.39;101085.97;5096388;28;19994;-40
2022/10/02 00:11:44;;;;;;;;;;;;;;;20.61;49.42;101082.91;5097966;28;20022;-39
2022/10/02 00:14:12;;;;;;;;;;;;;;;20.60;49.25;101086.81;5095779;28;20351;-39
2022/10/02 00:16:39;;;;;;;;;;;;;;;20.61;49.25;101084.88;5096095;28;20011;-39
2022/10/02 00:19:05;;;;;;;;;;;;;;;20.60;49.19;101086.81;5094340;28;19928;-39
2022/10/02 00:21:50;;;;;;;;;;;;;;;20.62;49.18;101092.03;5119182;28;19931;-39
2022/10/02 00:24:17;;;;;;;;;;;;;;;20.60;49.26;101088.75;5101032;28;19964;-40
2022/10/02 00:27:03;;;;;;;;;;;;;;;20.60;49.24;101088.75;5115250;28;20061;-39
2022/10/02 00:32:21;;;;;;;;;;;;;;;20.60;49.24;101097.88;5158323;27;20400;-37
2022/10/02 00:34:51;;;;;;;;;;;;;;;20.60;49.28;101100.63;5159920;27;20774;-37
2022/10/02 00:37:24;;;;;;;;;;;;;;;20.60;49.31;101108.94;5161277;27;19966;-37
2022/10/02 00:39:55;;;;;;;;;;;;;;;20.60;49.28;101102.59;5158307;27;20010;-38
2022/10/02 00:42:41;;;;;;;;;;;;;;;20.60;49.38;101105.34;5159603;27;19977;-37
2022/10/02 00:45:26;;;;;;;;;;;;;;;20.61;49.28;101101.47;5137564;27;20019;-37
2022/10/02 00:47:52;;;;;;;;;;;;;;;20.60;49.25;101099.81;5159911;27;19930;-38
2022/10/02 00:50:36;;;;;;;;;;;;;;;20.60;49.49;101108.94;5157640;27;20488;-37
2022/10/02 00:53:22;;;;;;;;;;;;;;;20.60;49.42;101100.63;5156208;27;20082;-39
2022/10/02 00:55:54;;;;;;;;;;;;;;;20.60;49.44;101099.81;5160567;27;19951;-39
2022/10/02 01:01:02;;;;;;;;;;;;;;;20.60;49.25;101106.16;5155916;27;19925;-40
2022/10/02 01:03:30;;;;;;;;;;;;;;;20.60;49.22;101106.16;5156238;27;20406;-39
2022/10/02 01:05:56;;;;;;;;;;;;;;;20.61;49.26;101109.75;5158963;27;19978;-39
2022/10/02 01:08:21;;;;;;;;;;;;;;;20.61;49.40;101109.75;5156628;27;19934;-39
2022/10/02 01:10:47;;;;;;;;;;;;;;;20.60;49.34;101117.25;5161004;27;19938;-39
2022/10/02 01:13:12;;;;;;;;;;;;;;;20.61;49.19;101121.66;5160674;27;19984;-39
2022/10/02 01:15:39;;;;;;;;;;;;;;;20.61;49.27;101126.38;5158854;27;19930;-40
2022/10/02 01:18:05;;;;;;;;;;;;;;;20.61;49.28;101118.06;5155505;27;20025;-39
2022/10/02 01:20:33;;;;;;;;;;;;;;;20.61;49.39;101120.84;5138171;27;19923;-39
2022/10/02 01:23:03;;;;;;;;;;;;;;;20.61;49.40;101112.53;5160244;27;19971;-40
2022/10/02 01:25:28;;;;;;;;;;;;;;;20.61;49.38;101116.13;5157396;27;20369;-40
2022/10/02 01:27:54;;;;;;;;;;;;;;;20.60;49.29;101120.00;5153851;27;20355;-39
2022/10/02 01:30:20;;;;;;;;;;;;;;;20.61;49.20;101120.84;5156662;27;19984;-39
2022/10/02 01:32:49;;;;;;;;;;;;;;;20.61;49.36;101134.66;5138646;27;20209;-39
2022/10/02 01:35:15;;;;;;;;;;;;;;;20.61;49.33;101123.59;5142567;27;20166;-40
2022/10/02 01:37:41;;;;;;;;;;;;;;;20.61;49.41;101118.06;5155849;27;19930;-39
2022/10/02 01:40:09;;;;;;;;;;;;;;;20.62;49.44;101125.25;5136092;27;20014;-40
2022/10/02 01:42:35;;;;;;;;;;;;;;;20.61;49.25;101118.06;5153141;27;19935;-40
2022/10/02 01:45:01;;;;;;;;;;;;;;;20.61;49.24;101127.19;5155246;27;19967;-40
2022/10/02 01:47:30;;;;;;;;;;;;;;;20.61;49.51;101123.59;5134629;27;19981;-39
2022/10/02 01:50:02;;;;;;;;;;;;;;;20.61;49.33;101129.13;5159272;27;20397;-39
2022/10/02 01:52:47;;;;;;;;;;;;;;;20.60;49.31;101128.31;5160431;27;19964;-40
2022/10/02 01:55:24;;;;;;;;;;;;;;;20.60;49.27;101120.00;5129568;27;20368;-39
2022/10/02 01:58:09;;;;;;;;;;;;;;;20.61;49.20;101126.38;5135812;27;19963;-39
2022/10/02 02:00:40;;;;;;;;;;;;;;;20.60;49.44;101119.19;5125527;27;19927;-40
2022/10/02 02:03:21;;;;;;;;;;;;;;;20.60;49.43;101124.72;5132254;27;20291;-40
2022/10/02 02:06:06;;;;;;;;;;;;;;;20.60;49.32;101124.72;5137592;27;20387;-40
2022/10/02 02:08:33;;;;;;;;;;;;;;;20.60;49.29;101124.72;5134659;27;19959;-40
2022/10/02 02:11:15;;;;;;;;;;;;;;;20.60;49.56;101135.78;5109197;27;20076;-39
2022/10/02 02:16:25;;;;;;;;;;;;;;;20.60;49.40;101108.94;5168811;27;20273;-37
2022/10/02 02:18:53;;;;;;;;;;;;;;;20.60;49.40;101120.00;5155030;27;20493;-38
2022/10/02 02:21:23;;;;;;;;;;;;;;;20.60;49.23;101108.94;5154761;27;19983;-37
2022/10/02 02:23:48;;;;;;;;;;;;;;;20.60;49.44;101108.94;5172446;27;20374;-37
2022/10/02 02:26:14;;;;;;;;;;;;;;;20.61;49.34;101107.00;5156524;27;20406;-37
2022/10/02 02:28:41;;;;;;;;;;;;;;;20.60;49.33;101108.94;5173541;27;19934;-35
2022/10/02 02:31:07;;;;;;;;;;;;;;;20.61;49.45;101104.22;5170845;27;19963;-35
2022/10/02 02:33:41;;;;;;;;;;;;;;;20.60;49.22;101108.94;5167195;27;19930;-35
2022/10/02 02:36:08;;;;;;;;;;;;;;;20.60;49.40;101108.13;5150422;27;20018;-35
2022/10/02 02:38:36;;;;;;;;;;;;;;;20.60;49.25;101108.94;5172648;27;20394;-35
2022/10/02 02:41:02;;;;;;;;;;;;;;;20.61;49.31;101112.53;5170724;27;19964;-35
2022/10/02 02:43:31;;;;;;;;;;;;;;;20.61;49.38;101115.28;5179640;27;19954;-35
2022/10/02 02:45:57;;;;;;;;;;;;;;;20.60;49.33;101120.00;5170597;27;19954;-35
2022/10/02 02:48:26;;;;;;;;;;;;;;;20.61;49.39;101112.53;5171495;27;19926;-35
2022/10/02 02:50:53;;;;;;;;;;;;;;;20.60;49.38;101117.25;5150977;27;19922;-35
2022/10/02 02:53:23;;;;;;;;;;;;;;;20.60;49.44;101125.53;5171687;27;20026;-35
2022/10/02 02:55:50;;;;;;;;;;;;;;;20.61;49.31;101126.38;5159027;27;20014;-35
2022/10/02 02:58:17;;;;;;;;;;;;;;;20.60;49.43;101120.00;5153690;27;19968;-35
2022/10/02 03:00:43;;;;;;;;;;;;;;;20.61;49.35;101120.84;5155150;27;19967;-36
2022/10/02 03:03:08;;;;;;;;;;;;;;;20.60;49.24;101120.00;5153375;27;19930;-35
2022/10/02 03:05:34;;;;;;;;;;;;;;;20.60;49.51;101122.78;5156352;27;19938;-35
2022/10/02 03:08:01;;;;;;;;;;;;;;;20.60;49.36;101119.19;5151636;27;19931;-35
2022/10/02 03:10:44;;;;;;;;;;;;;;;20.60;49.39;101117.25;5151101;27;20430;-35
2022/10/02 03:13:15;;;;;;;;;;;;;;;20.60;49.26;101108.94;5134832;27;20064;-38
2022/10/02 03:16:01;;;;;;;;;;;;;;;20.59;49.44;101112.78;5157952;27;20010;-38
2022/10/02 03:18:33;;;;;;;;;;;;;;;20.61;49.38;101115.28;5140004;27;19927;-37
2022/10/02 03:21:18;;;;;;;;;;;;;;;20.60;49.45;101131.06;5153906;27;19974;-37
2022/10/02 03:23:48;;;;;;;;;;;;;;;20.59;49.45;101123.88;5139238;27;20015;-37
2022/10/02 03:26:18;;;;;;;;;;;;;;;20.61;49.38;101129.97;5148310;27;20355;-37
2022/10/02 03:28:48;;;;;;;;;;;;;;;20.61;49.43;101137.44;5141524;27;19958;-37
2022/10/02 03:31:22;;;;;;;;;;;;;;;20.60;49.31;101133.03;5142131;27;19977;-37
2022/10/02 03:33:47;;;;;;;;;;;;;;;20.60;49.60;101136.59;5140882;27;20157;-37
2022/10/02 03:36:16;;;;;;;;;;;;;;;20.60;49.36;101127.50;5136896;27;19930;-37
2022/10/02 03:38:42;;;;;;;;;;;;;;;20.61;49.42;101137.44;5136341;27;19976;-37
2022/10/02 03:41:07;;;;;;;;;;;;;;;20.60;49.48;101128.31;5142741;27;20356;-37
2022/10/02 03:43:33;;;;;;;;;;;;;;;20.60;49.51;101128.31;5138215;27;20359;-38
2022/10/02 03:45:58;;;;;;;;;;;;;;;20.60;49.43;101136.59;5143165;27;19930;-38
2022/10/02 03:48:24;;;;;;;;;;;;;;;20.61;49.36;101137.44;5138574;27;19923;-37
2022/10/02 03:50:50;;;;;;;;;;;;;;;20.60;49.27;101130.25;5138784;27;19954;-37
2022/10/02 03:53:16;;;;;;;;;;;;;;;20.60;49.42;101135.78;5142715;27;19931;-38
2022/10/02 03:55:43;;;;;;;;;;;;;;;20.59;49.53;101134.94;5138355;27;20017;-37
2022/10/02 03:58:09;;;;;;;;;;;;;;;20.60;49.53;101117.25;5140651;27;20018;-37
2022/10/02 04:00:36;;;;;;;;;;;;;;;20.60;49.50;101119.19;5143492;27;20504;-37
2022/10/02 04:03:03;;;;;;;;;;;;;;;20.60;49.54;101117.25;5124038;27;19942;-37
2022/10/02 04:05:36;;;;;;;;;;;;;;;20.60;49.53;101119.19;5121321;27;20033;-37
2022/10/02 04:08:02;;;;;;;;;;;;;;;20.60;49.50;101113.66;5119927;27;19977;-37
2022/10/02 04:10:30;;;;;;;;;;;;;;;20.60;49.35;101117.25;5141548;27;20018;-37
2022/10/02 04:12:58;;;;;;;;;;;;;;;20.61;49.46;101118.06;5121198;27;19966;-37
2022/10/02 04:15:25;;;;;;;;;;;;;;;20.59;49.35;101118.34;5141739;27;20488;-37
2022/10/02 04:17:52;;;;;;;;;;;;;;;20.60;49.43;101128.31;5140767;27;20504;-37
2022/10/02 04:20:25;;;;;;;;;;;;;;;20.60;49.31;101120.00;5140727;27;20301;-37
2022/10/02 04:22:54;;;;;;;;;;;;;;;20.59;49.38;101123.03;5142969;27;20006;-37
2022/10/02 04:25:21;;;;;;;;;;;;;;;20.60;49.38;101131.06;5121903;27;19970;-37
2022/10/02 04:27:55;;;;;;;;;;;;;;;20.59;49.51;101132.16;5122427;27;20010;-38
2022/10/02 04:30:21;;;;;;;;;;;;;;;20.60;49.35;101128.31;5140539;27;19923;-37
2022/10/02 04:32:47;;;;;;;;;;;;;;;20.59;49.46;101126.63;5141381;27;19923;-37
2022/10/02 04:35:15;;;;;;;;;;;;;;;20.60;49.45;101128.31;5140150;27;19924;-37
2022/10/02 04:38:00;;;;;;;;;;;;;;;20.60;49.42;101136.59;5118175;27;20006;-37
2022/10/02 04:40:34;;;;;;;;;;;;;;;20.60;49.44;101128.31;5124406;27;20023;-38
2022/10/02 04:45:57;;;;;;;;;;;;;;;20.60;49.45;101155.97;5170469;27;19925;-35
2022/10/02 04:48:33;;;;;;;;;;;;;;;20.59;49.32;101148.78;5140328;27;19931;-35
2022/10/02 04:51:01;;;;;;;;;;;;;;;20.60;49.26;101155.16;5150969;27;20018;-35
2022/10/02 04:53:45;;;;;;;;;;;;;;;20.59;49.35;101151.53;5146746;27;19965;-35
2022/10/02 04:56:30;;;;;;;;;;;;;;;20.60;49.46;101160.69;5141192;27;20005;-35
2022/10/02 04:59:05;;;;;;;;;;;;;;;20.60;49.38;101152.38;5125492;27;19970;-35
2022/10/02 05:01:35;;;;;;;;;;;;;;;20.59;49.35;101146.00;5123331;27;20023;-35
2022/10/02 05:04:06;;;;;;;;;;;;;;;20.59;49.43;101146.00;5140834;27;19931;-35
2022/10/02 05:06:52;;;;;;;;;;;;;;;20.61;49.48;101151.28;5138395;27;19965;-35
2022/10/02 05:09:39;;;;;;;;;;;;;;;20.60;49.34;101152.38;5126097;27;19967;-35
2022/10/02 05:12:24;;;;;;;;;;;;;;;20.59;49.49;101143.22;5130477;27;20022;-35
2022/10/02 05:14:53;;;;;;;;;;;;;;;20.59;49.44;101165.38;5120476;27;19977;-35
2022/10/02 05:17:39;;;;;;;;;;;;;;;20.60;49.44;101169.81;5142744;27;20014;-35
2022/10/02 05:22:59;;;;;;;;;;;;;;;20.60;49.26;101141.31;5175834;27;19926;-37
2022/10/02 05:25:45;;;;;;;;;;;;;;;20.59;49.49;101165.38;5158066;27;19998;-37
2022/10/02 05:28:16;;;;;;;;;;;;;;;20.60;49.33;101166.22;5143087;27;19963;-37
2022/10/02 05:30:44;;;;;;;;;;;;;;;20.60;49.35;101155.16;5159424;27;19923;-37
2022/10/02 05:33:31;;;;;;;;;;;;;;;20.59;49.47;101161.78;5165746;27;20426;-37
2022/10/02 05:36:03;;;;;;;;;;;;;;;20.59;49.43;101153.47;5147212;27;19989;-37
2022/10/02 05:38:49;;;;;;;;;;;;;;;20.59;49.51;101172.84;5140758;27;20006;-37
2022/10/02 05:41:18;;;;;;;;;;;;;;;20.60;49.41;101166.22;5148956;27;20018;-37
2022/10/02 05:43:45;;;;;;;;;;;;;;;20.59;49.51;101173.66;5138670;27;19962;-37
2022/10/02 05:46:13;;;;;;;;;;;;;;;20.59;49.35;101172.84;5157814;27;20518;-37
2022/10/02 05:48:41;;;;;;;;;;;;;;;20.59;49.38;101159.84;5165017;27;19948;-37
2022/10/02 05:51:09;;;;;;;;;;;;;;;20.60;49.49;101169.81;5162973;27;19962;-37
2022/10/02 05:53:36;;;;;;;;;;;;;;;20.60;49.33;101174.53;5140873;27;20512;-38
2022/10/02 05:56:21;;;;;;;;;;;;;;;20.59;49.38;101175.63;5139827;27;20015;-37
2022/10/02 05:58:51;;;;;;;;;;;;;;;20.59;49.40;101183.91;5148404;27;20035;-38
2022/10/02 06:01:21;;;;;;;;;;;;;;;20.60;49.48;101182.81;5164226;27;20445;-37
2022/10/02 06:03:47;;;;;;;;;;;;;;;20.60;49.36;101180.06;5160204;27;19930;-37
2022/10/02 06:06:23;;;;;;;;;;;;;;;20.58;49.49;101180.31;5163430;27;20030;-37
2022/10/02 06:08:49;;;;;;;;;;;;;;;20.59;49.24;101195.81;5143735;27;19975;-38
2022/10/02 06:11:25;;;;;;;;;;;;;;;20.59;49.37;101201.34;5160846;27;19970;-37
2022/10/02 06:13:51;;;;;;;;;;;;;;;20.59;49.45;101209.63;5156037;27;20014;-38
2022/10/02 06:16:20;;;;;;;;;;;;;;;20.59;49.32;101206.06;5138668;27;20019;-37
2022/10/02 06:18:48;;;;;;;;;;;;;;;20.60;49.34;101213.25;5160730;27;19927;-37
2022/10/02 06:21:23;;;;;;;;;;;;;;;20.59;49.27;101212.41;5161237;27;20014;-38
2022/10/02 06:23:49;;;;;;;;;;;;;;;20.59;49.33;101211.59;5150762;27;20418;-38
2022/10/02 06:26:17;;;;;;;;;;;;;;;20.59;49.44;101217.94;5162918;27;20017;-38
2022/10/02 06:28:47;;;;;;;;;;;;;;;20.59;49.36;101217.13;5142818;27;20423;-38
2022/10/02 06:31:16;;;;;;;;;;;;;;;20.59;49.38;101217.94;5141906;27;19963;-37
2022/10/02 06:33:41;;;;;;;;;;;;;;;20.59;49.46;101220.72;5143458;27;20312;-37
2022/10/02 06:39:03;;;;;;;;;;;;;;;20.59;49.34;101215.19;5173453;27;19926;-35
2022/10/02 06:41:48;;;;;;;;;;;;;;;20.59;49.35;101215.19;5155095;27;20392;-35
2022/10/02 06:44:16;;;;;;;;;;;;;;;20.59;49.27;101217.13;5148549;27;19982;-35
2022/10/02 06:46:46;;;;;;;;;;;;;;;20.59;49.41;101223.47;5150469;27;19985;-35
2022/10/02 06:49:28;;;;;;;;;;;;;;;20.59;49.32;101229.00;5150191;27;20402;-35
2022/10/02 06:52:14;;;;;;;;;;;;;;;20.59;49.40;101225.41;5157985;27;20414;-35
2022/10/02 06:54:50;;;;;;;;;;;;;;;20.59;49.48;101223.47;5134336;27;20033;-35
2022/10/02 06:57:23;;;;;;;;;;;;;;;20.59;49.51;101231.78;5146046;27;20422;-35
2022/10/02 07:02:32;;;;;;;;;;;;;;;20.59;49.42;101245.63;5174410;27;19950;-34
2022/10/02 07:05:18;;;;;;;;;;;;;;;20.59;49.28;101239.25;5168581;27;19995;-35
2022/10/02 07:08:03;;;;;;;;;;;;;;;20.59;49.62;101242.84;5154283;27;20030;-35
2022/10/02 07:10:33;;;;;;;;;;;;;;;20.59;49.53;101240.06;5159036;27;20490;-35
2022/10/02 07:13:18;;;;;;;;;;;;;;;20.59;49.26;101230.97;5150966;27;19923;-35
2022/10/02 07:15:48;;;;;;;;;;;;;;;20.60;49.31;101229.88;5154018;27;19973;-35
2022/10/02 07:18:18;;;;;;;;;;;;;;;20.59;49.37;101239.25;5169056;27;19923;-35
2022/10/02 07:20:49;;;;;;;;;;;;;;;20.59;49.45;101242.03;5166160;27;19923;-35
2022/10/02 07:23:26;;;;;;;;;;;;;;;20.59;49.52;101253.91;5168518;27;19962;-35
2022/10/02 07:26:11;;;;;;;;;;;;;;;20.59;49.42;101250.31;5171347;27;19963;-35
2022/10/02 07:28:39;;;;;;;;;;;;;;;20.59;49.50;101256.69;5159028;27;20383;-35
2022/10/02 07:31:07;;;;;;;;;;;;;;;20.59;49.43;101259.44;5156846;27;19966;-35
2022/10/02 07:33:53;;;;;;;;;;;;;;;20.59;49.34;101266.94;5182300;27;19922;-35
2022/10/02 07:36:38;;;;;;;;;;;;;;;20.59;49.50;101266.94;5150758;27;19962;-35
2022/10/02 07:39:10;;;;;;;;;;;;;;;20.59;49.53;101270.50;5159071;27;19922;-35
2022/10/02 07:41:40;;;;;;;;;;;;;;;20.59;49.34;101258.63;5173606;27;19962;-38
2022/10/02 07:44:25;;;;;;;;;;;;;;;20.58;49.34;101274.41;5171910;27;19954;-37
2022/10/02 07:47:11;;;;;;;;;;;;;;;20.58;49.35;101276.34;5155831;27;19977;-37
2022/10/02 07:49:56;;;;;;;;;;;;;;;20.59;49.49;101276.06;5174072;27;19956;-37
2022/10/02 07:52:41;;;;;;;;;;;;;;;20.58;49.42;101268.88;5155381;27;19974;-37
2022/10/02 07:55:23;;;;;;;;;;;;;;;20.59;49.41;101278.00;5140284;27;20085;-38
2022/10/02 07:57:54;;;;;;;;;;;;;;;20.59;49.32;101283.53;5137710;27;20248;-37
2022/10/02 08:00:21;;;;;;;;;;;;;;;20.59;49.46;101286.28;5152288;27;19970;-37
2022/10/02 08:02:49;;;;;;;;;;;;;;;20.58;49.25;101290.19;5133579;27;19962;-37
2022/10/02 08:05:16;;;;;;;;;;;;;;;20.58;49.50;101293.78;5131204;27;19927;-37
2022/10/02 08:07:43;;;;;;;;;;;;;;;20.58;49.52;101293.78;5134139;27;20025;-37
2022/10/02 08:10:09;;;;;;;;;;;;;;;20.59;49.43;101289.06;5150217;27;19986;-37
2022/10/02 08:12:39;;;;;;;;;;;;;;;20.58;49.34;101298.47;5145128;27;20283;-37
2022/10/02 08:15:04;;;;;;;;;;;;;;;20.58;49.47;101299.31;5122979;27;19958;-37
2022/10/02 08:17:37;;;;;;;;;;;;;;;20.58;49.40;101299.31;5137967;27;19931;-37
2022/10/02 08:20:04;;;;;;;;;;;;;;;20.59;49.49;101298.19;5114574;28;20019;-37
2022/10/02 08:22:32;;;;;;;;;;;;;;;20.58;49.54;101304.84;5136898;27;20014;-37
2022/10/02 08:25:01;;;;;;;;;;;;;;;20.59;49.51;101300.13;5119891;27;20019;-37
2022/10/02 08:27:31;;;;;;;;;;;;;;;20.58;49.46;101315.91;5136118;27;20052;-37
2022/10/02 08:30:01;;;;;;;;;;;;;;;20.59;49.40;101313.97;5138584;27;19971;-37
2022/10/02 08:32:29;;;;;;;;;;;;;;;20.58;49.53;101307.59;5118714;27;19988;-37
2022/10/02 08:35:00;;;;;;;;;;;;;;;20.58;49.45;101304.84;5136226;27;20177;-37
2022/10/02 08:37:28;;;;;;;;;;;;;;;20.59;49.49;101313.97;5134783;27;19928;-37
2022/10/02 08:40:01;;;;;;;;;;;;;;;20.57;49.43;101314.25;5135330;27;20418;-37
2022/10/02 08:42:46;;;;;;;;;;;;;;;20.57;49.41;101314.25;5132249;27;20018;-37
2022/10/02 08:45:33;;;;;;;;;;;;;;;20.59;49.40;101322.28;5116236;27;20394;-38
2022/10/02 08:48:22;;;;;;;;;;;;;;;20.58;49.42;101321.44;5118139;27;19927;-37
2022/10/02 08:51:07;;;;;;;;;;;;;;;20.59;49.35;101325.03;5121138;27;19963;-37
2022/10/02 08:53:53;;;;;;;;;;;;;;;20.58;49.70;101323.38;5119581;27;20371;-38
2022/10/02 08:59:02;;;;;;;;;;;;;;;20.58;49.41;101331.69;5164063;27;20290;-35
2022/10/02 09:01:48;;;;;;;;;;;;;;;20.57;49.45;101328.09;5163734;27;19950;-35
2022/10/02 09:04:20;;;;;;;;;;;;;;;20.58;49.43;101337.22;5146355;27;19930;-35
2022/10/02 09:07:06;;;;;;;;;;;;;;;20.58;49.37;101334.44;5163999;27;19930;-36
2022/10/02 09:09:45;;;;;;;;;;;;;;;20.58;49.51;101342.75;5145457;27;20007;-37
2022/10/02 09:12:23;;;;;;;;;;;;;;;20.58;49.45;101340.81;5161695;27;20029;-37
2022/10/02 09:14:49;;;;;;;;;;;;;;;20.57;49.53;101341.94;5164119;27;20402;-37
2022/10/02 09:17:23;;;;;;;;;;;;;;;20.58;49.46;101337.22;5161582;27;20386;-37
2022/10/02 09:19:56;;;;;;;;;;;;;;;20.57;49.46;101343.88;5162751;27;20010;-37
2022/10/02 09:22:36;;;;;;;;;;;;;;;20.58;49.60;101331.69;5165555;27;20362;-37
2022/10/02 09:25:21;;;;;;;;;;;;;;;20.58;49.66;101342.75;5163941;27;19977;-37
2022/10/02 09:30:33;;;;;;;;;;;;;;;20.57;49.45;101344.69;5172996;27;19926;-35
2022/10/02 09:33:15;;;;;;;;;;;;;;;20.58;49.53;101346.34;5155748;27;20072;-35
2022/10/02 09:35:53;;;;;;;;;;;;;;;20.57;49.46;101338.34;5155137;27;19923;-35
2022/10/02 09:38:31;;;;;;;;;;;;;;;20.58;49.38;101348.28;5146260;27;20390;-35
2022/10/02 09:41:13;;;;;;;;;;;;;;;20.58;49.58;101348.28;5150589;27;19931;-37
2022/10/02 09:44:00;;;;;;;;;;;;;;;20.58;49.44;101345.53;5146058;27;20056;-37
2022/10/02 09:46:47;;;;;;;;;;;;;;;20.57;49.56;101349.41;5139040;27;19970;-37
2022/10/02 09:49:24;;;;;;;;;;;;;;;20.58;49.51;101342.75;5136078;27;20015;-37
2022/10/02 09:52:09;;;;;;;;;;;;;;;20.58;49.63;101348.28;5154013;27;19970;-37
2022/10/02 09:54:55;;;;;;;;;;;;;;;20.57;49.47;101341.94;5130057;27;19966;-38
2022/10/02 09:57:40;;;;;;;;;;;;;;;20.57;49.59;101344.69;5117601;27;20030;-37
2022/10/02 10:00:26;;;;;;;;;;;;;;;20.57;49.41;101353.00;5114239;27;20004;-37
2022/10/02 10:03:04;;;;;;;;;;;;;;;20.59;49.49;101361.00;5114793;27;20015;-37
2022/10/02 10:05:49;;;;;;;;;;;;;;;20.57;49.68;101366.84;5113577;27;20398;-37
2022/10/02 10:08:34;;;;;;;;;;;;;;;20.57;49.52;101369.59;5112197;27;19959;-37
2022/10/02 10:11:12;;;;;;;;;;;;;;;20.58;49.48;101370.44;5113515;27;20003;-37
2022/10/02 10:13:58;;;;;;;;;;;;;;;20.58;49.56;101373.19;5112296;27;20521;-37
2022/10/02 10:16:29;;;;;;;;;;;;;;;20.57;49.50;101368.78;5115461;27;20014;-37
2022/10/02 10:19:15;;;;;;;;;;;;;;;20.57;49.63;101380.66;5132988;27;19927;-38
2022/10/02 10:21:48;;;;;;;;;;;;;;;20.57;49.54;101382.59;5114897;27;20006;-37
2022/10/02 10:24:33;;;;;;;;;;;;;;;20.58;49.63;101378.72;5131339;27;19971;-37
2022/10/02 10:27:19;;;;;;;;;;;;;;;20.58;49.50;101376.78;5116034;27;20486;-37
2022/10/02 10:30:04;;;;;;;;;;;;;;;20.58;49.68;101381.50;5121541;27;20006;-38
2022/10/02 10:32:50;;;;;;;;;;;;;;;20.57;49.45;101380.66;5120962;27;19989;-37
2022/10/02 10:35:35;;;;;;;;;;;;;;;20.58;49.54;101381.50;5119055;27;20057;-37
2022/10/02 10:38:36;;;;;;;;;;;;;;;20.58;49.67;101384.25;5119331;27;20022;-37
2022/10/02 10:41:21;;;;;;;;;;;;;;;20.57;49.61;101380.66;5108850;28;19967;-38
2022/10/02 10:44:06;;;;;;;;;;;;;;;20.58;49.62;101387.03;5102696;28;20013;-37
2022/10/02 10:46:39;;;;;;;;;;;;;;;20.58;49.61;101387.03;5109509;28;19979;-37
2022/10/02 10:49:10;;;;;;;;;;;;;;;20.58;49.61;101392.56;5117005;28;20159;-37
2022/10/02 10:54:31;;;;;;;;;;;;;;;20.58;49.53;101398.09;5169586;27;19930;-35
2022/10/02 10:57:10;;;;;;;;;;;;;;;20.58;49.54;101403.63;5126817;27;19984;-35
2022/10/02 10:59:44;;;;;;;;;;;;;;;20.58;49.76;101407.22;5142909;27;20386;-35
2022/10/02 11:02:18;;;;;;;;;;;;;;;20.58;49.74;101407.22;5140880;27;20341;-35
2022/10/02 11:05:03;;;;;;;;;;;;;;;20.57;49.59;101411.09;5144679;27;20018;-34
2022/10/02 11:07:33;;;;;;;;;;;;;;;20.59;49.63;101416.34;5130051;27;20006;-35
2022/10/02 11:10:06;;;;;;;;;;;;;;;20.58;49.68;101417.47;5144053;27;19923;-35
2022/10/02 11:12:52;;;;;;;;;;;;;;;20.58;49.68;101403.63;5144620;27;19995;-37
2022/10/02 11:15:38;;;;;;;;;;;;;;;20.59;49.53;101424.66;5142800;27;19963;-37
2022/10/02 11:18:25;;;;;;;;;;;;;;;20.58;49.73;101414.69;5125691;27;20350;-37
2022/10/02 11:23:33;;;;;;;;;;;;;;;20.58;49.54;101414.69;5180389;27;20278;-34
2022/10/02 11:28:55;;;;;;;;;;;;;;;20.58;49.60;101428.53;5180461;27;19941;-37
2022/10/02 11:31:28;;;;;;;;;;;;;;;20.58;49.64;101425.75;5154570;27;20200;-37
2022/10/02 11:34:01;;;;;;;;;;;;;;;20.58;49.79;101429.38;5172240;27;19974;-37
2022/10/02 11:36:40;;;;;;;;;;;;;;;20.58;49.56;101431.31;5171620;27;19954;-38
2022/10/02 11:39:12;;;;;;;;;;;;;;;20.58;49.71;101436.84;5170396;27;20374;-37
2022/10/02 11:41:43;;;;;;;;;;;;;;;20.58;49.69;101431.31;5170821;27;20390;-37
2022/10/02 11:44:21;;;;;;;;;;;;;;;20.58;49.63;101431.31;5172274;27;19931;-38
2022/10/02 11:47:06;;;;;;;;;;;;;;;20.58;49.80;101434.06;5173252;27;20013;-38
2022/10/02 11:49:37;;;;;;;;;;;;;;;20.58;49.80;101431.31;5160047;27;20378;-37
2022/10/02 11:52:22;;;;;;;;;;;;;;;20.58;49.81;101437.66;5171792;27;19966;-37
2022/10/02 11:55:08;;;;;;;;;;;;;;;20.59;49.80;101430.19;5146786;27;19971;-37
2022/10/02 11:57:53;;;;;;;;;;;;;;;20.58;49.61;101436.84;5141078;27;20354;-37
2022/10/02 12:00:39;;;;;;;;;;;;;;;20.58;49.60;101442.38;5150727;27;19969;-37
2022/10/02 12:03:24;;;;;;;;;;;;;;;20.57;49.77;101449.03;5138050;27;20019;-37
2022/10/02 12:05:54;;;;;;;;;;;;;;;20.58;49.78;101448.72;5141445;27;19953;-37
2022/10/02 12:08:40;;;;;;;;;;;;;;;20.58;49.69;101442.38;5152921;27;19966;-37
2022/10/02 12:11:14;;;;;;;;;;;;;;;20.58;49.46;101450.66;5141524;27;20025;-38
2022/10/02 12:14:00;;;;;;;;;;;;;;;20.58;49.85;101437.66;5156418;27;20484;-37
2022/10/02 12:16:47;;;;;;;;;;;;;;;20.58;49.68;101442.38;5139275;27;20017;-37
2022/10/02 12:19:23;;;;;;;;;;;;;;;20.58;49.69;101440.44;5137276;27;21402;-37
2022/10/02 12:27:50;;;;;;;;;;;;;;;20.58;49.79;101434.91;5144313;27;20378;-37
2022/10/02 12:30:17;;;;;;;;;;;;;;;20.58;49.75;101428.53;5140130;27;20400;-37
2022/10/02 12:32:48;;;;;;;;;;;;;;;20.58;49.84;101429.38;5133435;27;20369;-37
2022/10/02 12:37:55;;;;;;;;;;;;;;;20.58;49.83;101425.75;5176890;27;19925;-37
2022/10/02 12:40:42;;;;;;;;;;;;;;;20.59;49.87;101427.41;5153706;27;20010;-37
2022/10/02 12:46:12;;;;;;;;;;;;;;;20.58;49.54;101432.13;5158553;27;19934;-35
2022/10/02 12:48:44;;;;;;;;;;;;;;;20.59;49.85;101427.41;5127593;27;19930;-37
2022/10/02 12:51:20;;;;;;;;;;;;;;;20.59;49.74;101435.72;5150040;27;20343;-37
2022/10/02 12:53:59;;;;;;;;;;;;;;;20.57;49.78;101432.41;5148332;27;19969;-37
2022/10/02 12:56:45;;;;;;;;;;;;;;;20.59;49.87;101432.94;5144433;27;20019;-38
2022/10/02 12:59:30;;;;;;;;;;;;;;;20.59;49.75;101432.94;5131504;27;19990;-37
2022/10/02 13:02:15;;;;;;;;;;;;;;;20.59;49.85;101432.94;5132221;27;20029;-37
2022/10/02 13:05:01;;;;;;;;;;;;;;;20.58;49.75;101429.38;5129618;27;19934;-38
2022/10/02 13:07:34;;;;;;;;;;;;;;;20.58;50.03;101429.38;5131585;27;20034;-37
2022/10/02 13:10:02;;;;;;;;;;;;;;;20.58;49.75;101440.44;5145483;27;20393;-37
2022/10/02 13:12:49;;;;;;;;;;;;;;;20.59;49.75;101441.25;5129876;27;20010;-37
2022/10/02 13:15:36;;;;;;;;;;;;;;;20.59;49.81;101432.94;5128480;27;19961;-37
2022/10/02 13:18:04;;;;;;;;;;;;;;;20.58;49.75;101434.91;5133695;27;20433;-37
2022/10/02 13:20:50;;;;;;;;;;;;;;;20.58;49.83;101437.66;5146452;27;20006;-37
2022/10/02 13:26:25;;;;;;;;;;;;;;;20.57;49.93;101422.19;5162937;27;19926;-35
2022/10/02 13:29:11;;;;;;;;;;;;;;;20.58;49.77;101429.38;5150161;27;20023;-35
2022/10/02 13:31:43;;;;;;;;;;;;;;;20.58;49.78;101434.91;5144467;27;20367;-35
2022/10/02 13:34:29;;;;;;;;;;;;;;;20.58;49.79;101440.44;5159503;27;19927;-35
2022/10/02 13:37:00;;;;;;;;;;;;;;;20.59;49.88;101444.03;5147678;27;19934;-35
2022/10/02 13:39:45;;;;;;;;;;;;;;;20.58;49.93;101439.59;5164833;27;19984;-35
2022/10/02 13:42:16;;;;;;;;;;;;;;;20.58;49.75;101443.19;5149424;27;20384;-37
2022/10/02 13:44:48;;;;;;;;;;;;;;;20.59;49.76;101435.72;5165200;27;19962;-37
2022/10/02 13:47:21;;;;;;;;;;;;;;;20.58;49.84;101448.72;5140047;27;20397;-37
2022/10/02 13:49:53;;;;;;;;;;;;;;;20.59;49.87;101446.78;5163798;27;19962;-38
2022/10/02 13:52:23;;;;;;;;;;;;;;;20.58;49.97;101457.03;5160878;27;20018;-38
2022/10/02 13:54:52;;;;;;;;;;;;;;;20.58;49.89;101462.56;5156589;27;19970;-37
2022/10/02 13:57:38;;;;;;;;;;;;;;;20.58;49.91;101459.81;5140435;27;20084;-38
2022/10/02 14:00:08;;;;;;;;;;;;;;;20.58;49.81;101459.81;5136281;27;20410;-37